Time;durP1;ratioP1;P1;durP2;ratioP2;P2;SDS_P1;SDS_P2;PMS_P1;PMS_P2;Temp;Humidity;BMP_temperature;BMP_pressure;BME280_temperature;BME280_humidity;BME280_pressure;Samples;Min_cycle;Max_cycle;Signal;HPM_P1;HPM_P2
2021/08/12 00:01:07;;;;;;;7.50;6.80;;;17.30;99.90;;;;;;6093181;23;20591;-94
2021/08/12 00:03:36;;;;;;;6.90;6.40;;;17.30;99.90;;;;;;6092542;23;20577;-95
2021/08/12 00:06:04;;;;;;;7.30;6.43;;;17.30;99.90;;;;;;6068272;23;20589;-94
2021/08/12 00:08:30;;;;;;;6.73;6.17;;;17.20;99.90;;;;;;6093395;23;20551;-94
2021/08/12 00:10:57;;;;;;;10.57;7.10;;;17.20;99.90;;;;;;6094219;23;20594;-94
2021/08/12 00:13:24;;;;;;;8.27;6.90;;;17.20;99.90;;;;;;6095529;23;20558;-93
2021/08/12 00:15:51;;;;;;;9.43;6.40;;;17.10;99.90;;;;;;6091808;23;20977;-94
2021/08/12 00:18:18;;;;;;;6.60;6.00;;;17.10;99.90;;;;;;6083556;23;20574;-93
2021/08/12 00:20:46;;;;;;;9.20;6.37;;;17.10;99.90;;;;;;6095136;23;20661;-94
2021/08/12 00:23:13;;;;;;;7.23;6.50;;;17.10;99.90;;;;;;6092688;23;21151;-94
2021/08/12 00:25:40;;;;;;;7.97;5.97;;;17.10;99.90;;;;;;6094971;23;20574;-93
2021/08/12 00:28:07;;;;;;;7.30;6.70;;;17.00;99.90;;;;;;6094417;23;20596;-93
2021/08/12 00:30:34;;;;;;;7.30;6.60;;;17.00;99.90;;;;;;6094902;23;20594;-93
2021/08/12 00:33:01;;;;;;;6.20;5.70;;;17.00;99.90;;;;;;6094524;23;20562;-93
2021/08/12 00:35:27;;;;;;;7.03;6.33;;;17.00;99.90;;;;;;6094964;23;20586;-93
2021/08/12 00:37:55;;;;;;;7.70;7.10;;;17.00;99.90;;;;;;6067260;23;20590;-93
2021/08/12 00:40:24;;;;;;;8.17;7.37;;;16.90;99.90;;;;;;6094092;23;21053;-93
2021/08/12 00:42:51;;;;;;;10.80;6.30;;;16.90;99.90;;;;;;6093889;23;20957;-93
2021/08/12 00:45:17;;;;;;;8.33;6.63;;;16.90;99.90;;;;;;6094651;23;20953;-93
2021/08/12 00:47:44;;;;;;;5.93;5.37;;;16.90;99.90;;;;;;6093101;23;20645;-93
2021/08/12 00:50:12;;;;;;;6.87;6.27;;;16.90;99.90;;;;;;6094027;23;20598;-92
2021/08/12 00:52:40;;;;;;;7.20;6.60;;;16.80;99.90;;;;;;6093640;23;20586;-93
2021/08/12 00:55:11;;;;;;;7.20;6.60;;;16.80;99.90;;;;;;6094865;23;20898;-92
2021/08/12 00:57:37;;;;;;;8.17;7.27;;;16.80;99.90;;;;;;6093026;23;20592;-92
2021/08/12 01:00:06;;;;;;;7.23;6.63;;;16.80;99.90;;;;;;6068961;23;20634;-92
2021/08/12 01:02:33;;;;;;;7.50;6.67;;;16.80;99.90;;;;;;6094108;23;20589;-93
2021/08/12 01:05:00;;;;;;;7.63;6.77;;;16.80;99.90;;;;;;6095011;23;20640;-94
2021/08/12 01:07:33;;;;;;;7.30;6.70;;;16.70;99.90;;;;;;6067753;23;20579;-92
2021/08/12 01:10:07;;;;;;;7.00;6.47;;;16.70;99.90;;;;;;6093828;23;20614;-93
2021/08/12 01:12:44;;;;;;;9.03;6.50;;;16.70;99.90;;;;;;6068455;23;20586;-93
2021/08/12 01:15:18;;;;;;;7.90;7.03;;;16.70;99.90;;;;;;6094365;23;20584;-93
2021/08/12 01:17:48;;;;;;;6.90;6.40;;;16.70;99.90;;;;;;6091155;23;20582;-93
2021/08/12 01:20:37;;;;;;;6.37;5.77;;;16.70;99.90;;;;;;6094066;23;20628;-93
2021/08/12 01:23:10;;;;;;;10.97;6.80;;;16.60;99.90;;;;;;6093224;23;20598;-93
2021/08/12 01:25:39;;;;;;;8.20;7.50;;;16.60;99.90;;;;;;6094040;23;20554;-94
2021/08/12 01:28:13;;;;;;;6.87;6.37;;;16.60;99.90;;;;;;6092980;23;20558;-93
2021/08/12 01:30:52;;;;;;;6.60;6.10;;;16.60;99.90;;;;;;6093913;23;20613;-94
2021/08/12 01:33:29;;;;;;;7.07;6.57;;;16.60;99.90;;;;;;6094347;23;20596;-94
2021/08/12 01:35:59;;;;;;;6.63;6.00;;;16.50;99.90;;;;;;6094255;23;20595;-93
2021/08/12 01:38:29;;;;;;;8.50;6.60;;;16.50;99.90;;;;;;6092483;23;20609;-94
2021/08/12 01:40:58;;;;;;;7.03;6.43;;;16.50;99.90;;;;;;6093763;23;20662;-93
2021/08/12 01:43:26;;;;;;;7.00;6.43;;;16.50;99.90;;;;;;6093851;23;20585;-93
2021/08/12 01:45:55;;;;;;;7.67;6.43;;;16.40;99.90;;;;;;6094871;23;20612;-93
2021/08/12 01:48:23;;;;;;;6.37;5.77;;;16.50;99.90;;;;;;6092737;23;20606;-93
2021/08/12 01:50:52;;;;;;;7.33;6.70;;;16.40;99.90;;;;;;6094257;23;20635;-93
2021/08/12 01:53:21;;;;;;;8.37;7.63;;;16.40;99.90;;;;;;6093610;23;20746;-93
2021/08/12 01:55:49;;;;;;;7.07;6.47;;;16.40;99.90;;;;;;6094425;23;20593;-93
2021/08/12 01:58:17;;;;;;;6.73;6.13;;;16.40;99.90;;;;;;6092413;23;20586;-93
2021/08/12 02:00:46;;;;;;;7.60;6.90;;;16.40;99.90;;;;;;6093571;23;20617;-93
2021/08/12 02:03:16;;;;;;;7.40;6.70;;;16.30;99.90;;;;;;6093923;23;20681;-93
2021/08/12 02:05:44;;;;;;;8.43;6.60;;;16.30;99.90;;;;;;6093930;23;20520;-93
2021/08/12 02:08:11;;;;;;;7.60;6.90;;;16.30;99.90;;;;;;6091031;23;20894;-93
2021/08/12 02:10:41;;;;;;;7.17;6.50;;;16.30;99.90;;;;;;6093461;23;20653;-93
2021/08/12 02:13:09;;;;;;;7.50;6.90;;;16.30;99.90;;;;;;6093602;23;20558;-94
2021/08/12 02:15:36;;;;;;;7.37;6.80;;;16.20;99.90;;;;;;6093706;23;20590;-93
2021/08/12 02:18:03;;;;;;;7.53;6.83;;;16.20;99.90;;;;;;6091911;23;20594;-94
2021/08/12 02:20:30;;;;;;;8.00;7.10;;;16.20;99.90;;;;;;6091872;23;20659;-93
2021/08/12 02:23:01;;;;;;;6.93;6.43;;;16.20;99.90;;;;;;6097393;23;20566;-93
2021/08/12 02:25:32;;;;;;;7.87;7.17;;;16.20;99.90;;;;;;6092709;23;20575;-94
2021/08/12 02:28:04;;;;;;;7.97;7.07;;;16.20;99.90;;;;;;6093743;23;20901;-94
2021/08/12 02:30:35;;;;;;;7.03;6.37;;;16.10;99.90;;;;;;6093659;23;20638;-94
2021/08/12 02:33:03;;;;;;;9.47;7.80;;;16.10;99.90;;;;;;6093562;23;20570;-93
2021/08/12 02:35:31;;;;;;;7.67;6.97;;;16.10;99.90;;;;;;6093841;23;20565;-93
2021/08/12 02:38:01;;;;;;;7.67;6.97;;;16.00;99.90;;;;;;6091764;23;20558;-92
2021/08/12 02:40:30;;;;;;;7.30;6.70;;;16.10;99.90;;;;;;6092319;23;21201;-94
2021/08/12 02:42:58;;;;;;;7.33;6.67;;;16.00;99.90;;;;;;6091307;23;20565;-94
2021/08/12 02:45:30;;;;;;;7.20;6.60;;;16.10;99.90;;;;;;6091678;23;21131;-92
2021/08/12 02:47:57;;;;;;;8.07;7.27;;;16.10;99.90;;;;;;6091944;23;20566;-92
2021/08/12 02:50:25;;;;;;;7.60;7.00;;;16.00;99.90;;;;;;6068098;23;20956;-94
2021/08/12 02:52:52;;;;;;;9.73;8.27;;;16.00;99.90;;;;;;6092562;23;20569;-93
2021/08/12 02:55:19;;;;;;;10.23;7.50;;;16.00;99.90;;;;;;6081389;23;20628;-95
2021/08/12 02:57:46;;;;;;;7.77;6.97;;;16.00;99.90;;;;;;6090194;23;20602;-93
2021/08/12 03:00:14;;;;;;;7.97;7.13;;;15.90;99.90;;;;;;6093072;23;20608;-93
2021/08/12 03:02:47;;;;;;;7.80;7.17;;;15.90;99.90;;;;;;6093110;23;20558;-93
2021/08/12 03:05:14;;;;;;;7.90;7.30;;;15.90;99.90;;;;;;6093800;23;20542;-93
2021/08/12 03:07:43;;;;;;;8.07;7.47;;;15.90;99.90;;;;;;6092072;23;20686;-93
2021/08/12 03:10:11;;;;;;;8.40;7.70;;;15.90;99.90;;;;;;6093550;23;20964;-94
2021/08/12 03:12:39;;;;;;;8.20;7.40;;;15.90;99.90;;;;;;6092818;23;21414;-94
2021/08/12 03:15:07;;;;;;;9.10;8.03;;;15.90;99.90;;;;;;6093852;23;21167;-94
2021/08/12 03:17:35;;;;;;;8.43;7.40;;;15.90;99.90;;;;;;6092046;23;20899;-93
2021/08/12 03:20:03;;;;;;;9.30;7.60;;;15.80;99.90;;;;;;6093875;23;20706;-93
2021/08/12 03:22:38;;;;;;;8.17;7.57;;;15.80;99.90;;;;;;6093174;23;20594;-94
2021/08/12 03:25:06;;;;;;;8.67;7.90;;;15.80;99.90;;;;;;6093109;23;20589;-94
2021/08/12 03:27:33;;;;;;;9.80;8.97;;;15.80;99.90;;;;;;6092593;23;20586;-93
2021/08/12 03:30:00;;;;;;;7.60;6.90;;;15.70;99.90;;;;;;6092722;23;20670;-95
2021/08/12 03:32:26;;;;;;;9.23;8.17;;;15.80;99.90;;;;;;6092927;23;20586;-94
2021/08/12 03:34:53;;;;;;;8.43;7.63;;;15.80;99.90;;;;;;6093186;23;20563;-93
2021/08/12 03:37:21;;;;;;;8.37;7.57;;;15.70;99.90;;;;;;6092132;23;20593;-94
2021/08/12 03:39:48;;;;;;;9.27;8.57;;;15.70;99.90;;;;;;6092466;23;20613;-93
2021/08/12 03:42:15;;;;;;;8.13;7.43;;;15.70;99.90;;;;;;6091923;23;21166;-91
2021/08/12 03:44:42;;;;;;;8.80;8.10;;;15.70;99.90;;;;;;6092722;23;20614;-93
2021/08/12 03:47:09;;;;;;;10.07;7.40;;;15.70;99.90;;;;;;6093173;23;20590;-93
2021/08/12 03:49:36;;;;;;;8.30;7.50;;;15.70;99.90;;;;;;6092183;23;20625;-93
2021/08/12 03:52:03;;;;;;;9.63;8.83;;;15.60;99.90;;;;;;6092691;23;20593;-93
2021/08/12 03:54:35;;;;;;;9.57;8.77;;;15.60;99.90;;;;;;6092587;23;20625;-94
2021/08/12 03:57:02;;;;;;;8.57;7.87;;;15.60;99.90;;;;;;6092588;23;20670;-94
2021/08/12 03:59:29;;;;;;;7.47;6.80;;;15.60;99.90;;;;;;6092550;23;21302;-94
2021/08/12 04:01:58;;;;;;;8.50;7.63;;;15.60;99.90;;;;;;6093253;23;20590;-93
2021/08/12 04:04:25;;;;;;;7.97;7.37;;;15.60;99.90;;;;;;6092723;23;20589;-94
2021/08/12 04:06:51;;;;;;;8.67;7.87;;;15.60;99.90;;;;;;6092728;23;20593;-94
2021/08/12 04:09:18;;;;;;;7.97;7.27;;;15.60;99.90;;;;;;6091643;23;20590;-93
2021/08/12 04:11:47;;;;;;;8.63;7.83;;;15.60;99.90;;;;;;6092427;23;20622;-93
2021/08/12 04:14:13;;;;;;;8.57;7.77;;;15.60;99.90;;;;;;6093060;23;20655;-94
2021/08/12 04:16:41;;;;;;;8.33;7.47;;;15.50;99.90;;;;;;6093055;23;20558;-94
2021/08/12 04:19:09;;;;;;;8.17;7.60;;;15.60;99.90;;;;;;6092293;23;20658;-93
2021/08/12 04:21:35;;;;;;;8.30;7.50;;;15.50;99.90;;;;;;6093281;23;20586;-94
2021/08/12 04:24:02;;;;;;;9.83;7.97;;;15.60;99.90;;;;;;6093285;23;20591;-94
2021/08/12 04:26:29;;;;;;;7.67;7.17;;;15.60;99.90;;;;;;6092823;23;20567;-94
2021/08/12 04:28:58;;;;;;;8.77;8.07;;;15.60;99.90;;;;;;6092662;23;21077;-94
2021/08/12 04:31:25;;;;;;;7.80;7.10;;;15.50;99.90;;;;;;6093080;23;21173;-94
2021/08/12 04:33:52;;;;;;;10.17;8.47;;;15.50;99.90;;;;;;6093523;23;20586;-94
2021/08/12 04:36:19;;;;;;;7.67;7.07;;;15.60;99.90;;;;;;6067023;23;20598;-93
2021/08/12 04:38:45;;;;;;;8.00;7.30;;;15.50;99.90;;;;;;6092199;23;20586;-94
2021/08/12 04:41:12;;;;;;;8.87;8.10;;;15.60;99.90;;;;;;6092747;23;20618;-94
2021/08/12 04:43:39;;;;;;;8.53;7.73;;;15.60;99.90;;;;;;6092963;23;20565;-93
2021/08/12 04:46:07;;;;;;;8.47;7.77;;;15.60;99.90;;;;;;6093312;23;20581;-94
2021/08/12 04:48:34;;;;;;;9.43;8.47;;;15.70;99.90;;;;;;6092238;23;20600;-93
2021/08/12 04:51:01;;;;;;;8.17;7.47;;;15.70;99.90;;;;;;6092801;23;20642;-94
2021/08/12 04:53:28;;;;;;;9.17;8.30;;;15.70;99.90;;;;;;6065643;23;20645;-93
2021/08/12 04:55:54;;;;;;;8.60;7.70;;;15.80;99.90;;;;;;6094777;23;21122;-94
2021/08/12 04:58:21;;;;;;;9.70;8.70;;;15.80;99.90;;;;;;6094217;23;20598;-94
2021/08/12 05:00:48;;;;;;;9.73;8.13;;;15.80;99.90;;;;;;6094323;23;20652;-93
2021/08/12 05:03:17;;;;;;;9.10;8.40;;;15.90;99.90;;;;;;6068783;23;20586;-94
2021/08/12 05:05:44;;;;;;;9.47;8.67;;;15.90;99.90;;;;;;6095146;23;20641;-94
2021/08/12 05:08:11;;;;;;;9.37;8.57;;;16.00;99.90;;;;;;6093591;23;20519;-94
2021/08/12 05:10:38;;;;;;;9.03;8.20;;;16.10;99.90;;;;;;6094672;23;20638;-94
2021/08/12 05:13:06;;;;;;;10.17;9.13;;;16.20;99.90;;;;;;6094213;23;20592;-95
2021/08/12 05:15:33;;;;;;;9.17;8.23;;;16.30;99.90;;;;;;6094905;23;20577;-95
2021/08/12 05:18:00;;;;;;;9.50;8.70;;;16.40;99.90;;;;;;6094059;23;20569;-94
2021/08/12 05:20:28;;;;;;;12.23;9.00;;;16.50;99.90;;;;;;6094594;23;20632;-94
2021/08/12 05:22:55;;;;;;;10.33;9.10;;;16.60;99.90;;;;;;6093608;23;20565;-95
2021/08/12 05:25:22;;;;;;;9.97;9.00;;;16.70;99.90;;;;;;6094287;23;21002;-94
2021/08/12 05:27:49;;;;;;;9.63;8.83;;;16.70;99.90;;;;;;6093597;23;20592;-95
2021/08/12 05:30:16;;;;;;;9.63;8.47;;;16.80;99.90;;;;;;6094295;23;20636;-95
2021/08/12 05:32:42;;;;;;;9.07;8.17;;;16.90;99.90;;;;;;6093948;23;20594;-94
2021/08/12 05:35:10;;;;;;;12.00;8.70;;;16.90;99.90;;;;;;6094463;23;20565;-93
2021/08/12 05:37:43;;;;;;;9.13;8.37;;;16.90;99.90;;;;;;6092771;23;20585;-94
2021/08/12 05:40:11;;;;;;;9.20;8.30;;;16.90;99.90;;;;;;6093988;23;20579;-93
2021/08/12 05:42:37;;;;;;;8.53;7.73;;;16.90;99.90;;;;;;6094406;23;20589;-94
2021/08/12 05:45:05;;;;;;;8.80;8.10;;;16.90;99.90;;;;;;6094589;23;20604;-93
2021/08/12 05:47:34;;;;;;;10.13;9.20;;;17.00;99.90;;;;;;6093087;23;20590;-93
2021/08/12 05:50:01;;;;;;;10.43;9.33;;;17.00;99.90;;;;;;6094143;23;20666;-94
2021/08/12 05:52:28;;;;;;;10.40;9.30;;;17.00;99.90;;;;;;6093769;23;20586;-94
2021/08/12 05:54:56;;;;;;;7.93;6.73;;;17.00;99.90;;;;;;6094391;23;20590;-94
2021/08/12 05:57:23;;;;;;;7.97;7.17;;;17.10;99.90;;;;;;6092976;23;20598;-94
2021/08/12 05:59:50;;;;;;;10.17;9.17;;;17.10;99.90;;;;;;6094313;23;21246;-95
2021/08/12 06:02:17;;;;;;;12.40;8.00;;;17.20;99.90;;;;;;6093695;23;21533;-94
2021/08/12 06:04:44;;;;;;;9.67;8.40;;;17.30;99.90;;;;;;6093193;23;20586;-94
2021/08/12 06:07:11;;;;;;;9.33;8.53;;;17.40;99.90;;;;;;6093607;23;20563;-94
2021/08/12 06:09:37;;;;;;;9.83;8.83;;;17.50;99.90;;;;;;6092942;23;20601;-95
2021/08/12 06:12:07;;;;;;;10.63;9.50;;;17.50;99.90;;;;;;6093706;23;21075;-94
2021/08/12 06:14:34;;;;;;;11.27;9.00;;;17.60;99.90;;;;;;6093116;23;20590;-95
2021/08/12 06:17:01;;;;;;;13.47;9.00;;;17.60;99.90;;;;;;6091165;23;20573;-94
2021/08/12 06:19:27;;;;;;;10.40;9.40;;;17.70;99.90;;;;;;6092335;23;20608;-94
2021/08/12 06:21:54;;;;;;;10.63;9.53;;;17.80;99.90;;;;;;6093728;23;20582;-94
2021/08/12 06:24:21;;;;;;;9.77;8.80;;;17.80;99.90;;;;;;6092832;23;20646;-94
2021/08/12 06:26:48;;;;;;;9.17;8.27;;;17.80;99.90;;;;;;6092760;23;20621;-95
2021/08/12 06:29:16;;;;;;;9.03;7.40;;;17.90;99.90;;;;;;6092930;23;20561;-94
2021/08/12 06:31:43;;;;;;;11.87;8.97;;;17.90;99.90;;;;;;6093271;23;20618;-94
2021/08/12 06:34:10;;;;;;;8.80;8.00;;;18.00;99.90;;;;;;6093438;23;20617;-95
2021/08/12 06:36:36;;;;;;;9.17;8.37;;;18.00;99.90;;;;;;6090938;23;20575;-94
2021/08/12 06:39:03;;;;;;;9.07;8.10;;;18.10;99.90;;;;;;6092932;23;20562;-94
2021/08/12 06:41:30;;;;;;;9.93;9.00;;;18.10;99.90;;;;;;6093199;23;20610;-94
2021/08/12 06:43:57;;;;;;;9.97;8.70;;;18.20;99.90;;;;;;6093881;23;20602;-95
2021/08/12 06:46:25;;;;;;;9.50;8.60;;;18.20;99.90;;;;;;6093283;23;20594;-94
2021/08/12 06:48:52;;;;;;;9.20;8.40;;;18.30;99.90;;;;;;6093787;23;20673;-94
2021/08/12 06:51:19;;;;;;;8.40;6.87;;;18.40;99.90;;;;;;6093579;23;20702;-94
2021/08/12 06:53:47;;;;;;;7.60;6.20;;;18.50;99.90;;;;;;6094005;23;20597;-94
2021/08/12 06:56:17;;;;;;;9.20;6.57;;;18.60;99.90;;;;;;6093491;23;21431;-95
2021/08/12 06:58:44;;;;;;;8.20;6.53;;;18.70;99.90;;;;;;6093501;23;20641;-95
2021/08/12 07:01:11;;;;;;;10.00;6.87;;;18.90;99.90;;;;;;6093376;23;20611;-94
2021/08/12 07:03:39;;;;;;;7.30;6.70;;;19.00;99.90;;;;;;6093012;23;20641;-93
2021/08/12 07:06:06;;;;;;;8.37;7.57;;;19.20;99.90;;;;;;6092724;23;21176;-94
2021/08/12 07:08:33;;;;;;;7.93;7.13;;;19.30;99.90;;;;;;6090300;23;20593;-94
2021/08/12 07:11:01;;;;;;;7.87;6.50;;;19.50;99.90;;;;;;6090433;23;20694;-95
2021/08/12 07:13:28;;;;;;;12.23;8.07;;;19.70;99.90;;;;;;6092112;23;20523;-95
2021/08/12 07:15:55;;;;;;;12.60;8.07;;;19.80;99.90;;;;;;6093896;23;20685;-94
2021/08/12 07:18:22;;;;;;;13.47;6.50;;;19.90;99.90;;;;;;6092628;23;20605;-93
2021/08/12 07:20:50;;;;;;;8.80;6.83;;;20.00;99.90;;;;;;6093668;23;20649;-94
2021/08/12 07:23:17;;;;;;;9.40;8.50;;;20.00;99.90;;;;;;6091731;23;20682;-94
2021/08/12 07:25:44;;;;;;;8.70;8.00;;;20.00;99.90;;;;;;6093031;23;20600;-94
2021/08/12 07:28:12;;;;;;;7.47;6.77;;;20.10;99.90;;;;;;6092415;23;20593;-94
2021/08/12 07:30:39;;;;;;;10.40;6.80;;;20.10;99.90;;;;;;6093827;23;20606;-94
2021/08/12 07:33:06;;;;;;;9.40;7.00;;;20.20;99.90;;;;;;6092614;23;20587;-94
2021/08/12 07:35:33;;;;;;;7.53;6.90;;;20.30;99.90;;;;;;6094127;23;20590;-94
2021/08/12 07:38:02;;;;;;;8.73;7.83;;;20.40;99.90;;;;;;6091866;23;20585;-94
2021/08/12 07:40:28;;;;;;;6.73;6.20;;;20.50;99.90;;;;;;6095448;23;20621;-95
2021/08/12 07:42:56;;;;;;;8.63;6.83;;;20.60;99.90;;;;;;6096170;23;20693;-95
2021/08/12 07:45:23;;;;;;;11.20;6.33;;;20.70;99.90;;;;;;6093823;23;20593;-95
2021/08/12 07:47:50;;;;;;;7.20;6.50;;;20.80;99.90;;;;;;6092532;23;20669;-95
2021/08/12 07:50:17;;;;;;;8.20;6.23;;;21.00;99.90;;;;;;6092432;23;20614;-94
2021/08/12 07:52:44;;;;;;;7.70;7.00;;;21.10;99.90;;;;;;6091970;23;20657;-94
2021/08/12 07:55:12;;;;;;;7.63;6.93;;;21.20;99.90;;;;;;6093412;23;20586;-94
2021/08/12 07:57:40;;;;;;;7.67;6.10;;;21.40;99.90;;;;;;6092770;23;20685;-94
2021/08/12 08:00:08;;;;;;;8.80;6.90;;;21.50;99.90;;;;;;6093327;23;20617;-94
2021/08/12 08:02:46;;;;;;;13.00;7.00;;;21.60;99.90;;;;;;6092586;23;20582;-94
2021/08/12 08:05:17;;;;;;;7.80;6.97;;;21.70;99.90;;;;;;6092916;23;20610;-93
2021/08/12 08:07:44;;;;;;;6.93;6.23;;;21.90;99.90;;;;;;6091130;23;21465;-94
2021/08/12 08:10:13;;;;;;;9.00;6.97;;;22.00;99.90;;;;;;6091260;23;20611;-94
2021/08/12 08:12:41;;;;;;;10.43;6.30;;;22.10;99.90;;;;;;6091919;23;20641;-94
2021/08/12 08:15:09;;;;;;;8.00;6.77;;;22.20;99.90;;;;;;6092757;23;20644;-94
2021/08/12 08:17:35;;;;;;;6.60;6.00;;;22.30;99.90;;;;;;6091888;23;20578;-94
2021/08/12 08:20:03;;;;;;;8.87;5.60;;;22.40;99.90;;;;;;6093373;23;20625;-93
2021/08/12 08:22:29;;;;;;;6.77;6.10;;;22.50;99.90;;;;;;6092192;23;20582;-94
2021/08/12 08:24:56;;;;;;;8.23;6.20;;;22.60;99.90;;;;;;6092446;23;20598;-93
2021/08/12 08:27:24;;;;;;;8.17;7.37;;;22.70;99.90;;;;;;6092081;23;20600;-95
2021/08/12 08:29:53;;;;;;;7.40;6.70;;;22.80;99.90;;;;;;6097423;23;20624;-94
2021/08/12 08:32:20;;;;;;;6.13;5.03;;;22.80;99.90;;;;;;6069166;23;20988;-95
2021/08/12 08:34:47;;;;;;;9.47;6.00;;;23.00;99.90;;;;;;6095006;23;20577;-94
2021/08/12 08:37:14;;;;;;;6.87;6.27;;;23.10;99.90;;;;;;6093824;23;20686;-93
2021/08/12 08:39:42;;;;;;;6.07;5.57;;;23.20;99.90;;;;;;6093944;23;20614;-94
2021/08/12 08:42:11;;;;;;;15.13;7.47;;;23.30;99.90;;;;;;6094207;23;20582;-94
2021/08/12 08:44:42;;;;;;;7.77;6.70;;;23.40;99.90;;;;;;6094410;23;20965;-93
2021/08/12 08:47:11;;;;;;;8.90;5.70;;;23.60;99.90;;;;;;6094637;23;20657;-94
2021/08/12 08:49:42;;;;;;;6.80;5.83;;;23.60;99.90;;;;;;6093637;23;20936;-94
2021/08/12 08:52:10;;;;;;;9.27;5.63;;;23.80;99.90;;;;;;6094194;23;20630;-93
2021/08/12 08:54:39;;;;;;;7.20;6.47;;;23.90;99.90;;;;;;6094259;23;20653;-93
2021/08/12 08:57:07;;;;;;;7.27;6.17;;;24.00;99.90;;;;;;6094588;23;20665;-94
2021/08/12 08:59:35;;;;;;;6.30;5.53;;;24.20;99.90;;;;;;6093530;23;20590;-94
2021/08/12 09:02:04;;;;;;;6.73;5.57;;;24.30;99.90;;;;;;6094429;23;21258;-93
2021/08/12 09:04:32;;;;;;;6.37;5.80;;;24.40;99.90;;;;;;6094497;23;20554;-92
2021/08/12 09:06:59;;;;;;;6.93;6.30;;;24.60;99.90;;;;;;6094209;23;20570;-94
2021/08/12 09:09:26;;;;;;;8.13;5.57;;;24.70;99.90;;;;;;6093003;23;20577;-94
2021/08/12 09:11:52;;;;;;;6.53;5.73;;;24.80;99.90;;;;;;6093841;23;20613;-92
2021/08/12 09:14:34;;;;;;;6.67;6.07;;;24.90;99.90;;;;;;6093903;23;20571;-94
2021/08/12 09:17:23;;;;;;;6.27;5.77;;;25.00;99.90;;;;;;6091834;23;20582;-93
2021/08/12 09:20:06;;;;;;;7.17;5.73;;;25.10;99.90;;;;;;6092939;23;20704;-94
2021/08/12 09:22:51;;;;;;;6.97;4.93;;;25.30;99.90;;;;;;6093401;23;21296;-93
2021/08/12 09:25:26;;;;;;;6.07;5.47;;;25.40;99.90;;;;;;6094310;23;21305;-94
2021/08/12 09:28:14;;;;;;;8.00;6.07;;;25.50;99.90;;;;;;6091069;23;20987;-94
2021/08/12 09:30:42;;;;;;;6.10;5.50;;;25.60;99.90;;;;;;6093079;23;21166;-94
2021/08/12 09:33:18;;;;;;;6.07;5.40;;;25.80;99.90;;;;;;6093947;23;20955;-93
2021/08/12 09:35:46;;;;;;;7.10;6.37;;;25.90;99.90;;;;;;6093764;23;20589;-94
2021/08/12 09:38:14;;;;;;;5.93;5.43;;;26.00;99.90;;;;;;6091750;23;20670;-93
2021/08/12 09:40:42;;;;;;;6.27;5.77;;;26.10;99.90;;;;;;6093718;23;20986;-93
2021/08/12 09:43:11;;;;;;;6.03;5.20;;;26.30;99.90;;;;;;6093840;23;20590;-94
2021/08/12 09:45:41;;;;;;;6.00;5.50;;;26.50;99.90;;;;;;6094070;23;20644;-94
2021/08/12 09:48:15;;;;;;;5.90;5.40;;;26.70;99.90;;;;;;6092764;23;20594;-94
2021/08/12 09:50:43;;;;;;;7.30;5.57;;;27.00;99.90;;;;;;6093948;23;20993;-94
2021/08/12 09:53:21;;;;;;;6.60;5.40;;;27.00;99.90;;;;;;6092312;23;20629;-93
2021/08/12 09:55:48;;;;;;;6.33;5.70;;;27.10;99.90;;;;;;6093905;23;20547;-94
2021/08/12 09:58:15;;;;;;;6.13;5.63;;;27.20;99.90;;;;;;6092381;23;20590;-94
2021/08/12 10:00:44;;;;;;;6.30;5.70;;;27.40;99.90;;;;;;6094023;23;21173;-94
2021/08/12 10:03:27;;;;;;;5.93;5.43;;;27.60;99.90;;;;;;6092689;23;20574;-94
2021/08/12 10:05:56;;;;;;;6.93;6.33;;;27.70;99.90;;;;;;6093561;23;20578;-93
2021/08/12 10:08:28;;;;;;;7.03;6.17;;;27.90;99.90;;;;;;6091146;23;20590;-94
2021/08/12 10:10:56;;;;;;;8.50;6.10;;;28.10;99.90;;;;;;6092616;23;20618;-94
2021/08/12 10:13:23;;;;;;;5.53;4.87;;;28.30;99.90;;;;;;6092904;23;21198;-94
2021/08/12 10:15:51;;;;;;;6.70;6.10;;;28.50;99.90;;;;;;6093453;23;20668;-94
2021/08/12 10:18:19;;;;;;;6.90;6.20;;;28.80;99.90;;;;;;6091962;23;20637;-94
2021/08/12 10:20:48;;;;;;;6.40;5.77;;;28.90;99.90;;;;;;6092794;23;21009;-94
2021/08/12 10:23:19;;;;;;;5.73;5.30;;;29.10;99.40;;;;;;6092133;23;20562;-93
2021/08/12 10:25:57;;;;;;;5.43;4.97;;;29.30;99.40;;;;;;6092803;23;20602;-94
2021/08/12 10:28:25;;;;;;;5.90;5.30;;;29.30;98.20;;;;;;6091437;23;20583;-94
2021/08/12 10:30:53;;;;;;;7.50;5.60;;;29.50;96.90;;;;;;6092454;23;20626;-94
2021/08/12 10:33:20;;;;;;;4.77;4.37;;;29.60;95.10;;;;;;6092283;23;20603;-94
2021/08/12 10:35:49;;;;;;;9.60;6.20;;;29.80;94.50;;;;;;6093471;23;20580;-94
2021/08/12 10:38:16;;;;;;;7.57;5.17;;;30.00;95.30;;;;;;6091113;23;20586;-94
2021/08/12 10:40:45;;;;;;;5.77;5.27;;;30.20;94.00;;;;;;6092527;23;21212;-93
2021/08/12 10:43:17;;;;;;;6.07;5.57;;;30.40;93.90;;;;;;6090899;23;20587;-94
2021/08/12 10:45:54;;;;;;;6.33;5.73;;;30.60;93.40;;;;;;6092107;23;20527;-94
2021/08/12 10:48:21;;;;;;;6.23;5.70;;;30.80;92.00;;;;;;6091264;23;20558;-94
2021/08/12 10:51:01;;;;;;;5.80;5.30;;;31.10;92.20;;;;;;6092988;23;20617;-94
2021/08/12 10:53:28;;;;;;;12.27;11.50;;;31.30;91.10;;;;;;6066202;23;20609;-94
2021/08/12 10:56:20;;;;;;;13.03;12.30;;;31.50;90.90;;;;;;6092446;23;20664;-93
2021/08/12 10:59:05;;;;;;;13.77;12.67;;;31.70;90.20;;;;;;6091997;23;20547;-94
2021/08/12 11:01:35;;;;;;;11.50;10.70;;;31.80;88.40;;;;;;6092537;23;20645;-94
2021/08/12 11:04:03;;;;;;;14.27;13.50;;;32.00;88.00;;;;;;6092583;23;20586;-93
2021/08/12 11:06:51;;;;;;;12.70;11.93;;;32.10;87.40;;;;;;6091758;23;20616;-94
2021/08/12 11:09:18;;;;;;;12.70;12.00;;;32.30;87.00;;;;;;6090836;23;20622;-94
2021/08/12 11:11:58;;;;;;;13.50;12.70;;;32.30;87.10;;;;;;6091334;23;20590;-93
2021/08/12 11:14:51;;;;;;;12.97;12.07;;;32.40;85.40;;;;;;6091702;23;20589;-93
2021/08/12 11:17:22;;;;;;;13.73;12.43;;;32.30;85.90;;;;;;6091181;23;21159;-93
2021/08/12 11:19:50;;;;;;;12.57;11.87;;;32.20;86.60;;;;;;6090249;23;20673;-93
2021/08/12 11:22:33;;;;;;;13.77;12.57;;;32.30;88.00;;;;;;6091645;23;20555;-94
2021/08/12 11:25:01;;;;;;;11.90;11.20;;;32.40;84.10;;;;;;6092180;23;20578;-94
2021/08/12 11:27:42;;;;;;;10.33;9.70;;;32.50;85.90;;;;;;6090382;23;20672;-94
2021/08/12 11:30:49;;;;;;;10.30;9.40;;;32.70;84.70;;;;;;6092345;23;20668;-95
2021/08/12 11:33:26;;;;;;;14.90;14.10;;;33.00;84.00;;;;;;6089608;23;20605;-95
2021/08/12 11:36:13;;;;;;;14.50;13.30;;;33.20;83.20;;;;;;6090089;23;20681;-94
2021/08/12 11:38:58;;;;;;;7.57;7.00;;;33.30;84.00;;;;;;6090344;23;20562;-94
2021/08/12 11:41:27;;;;;;;7.40;6.70;;;33.30;81.40;;;;;;6090963;23;20627;-93
2021/08/12 11:43:54;;;;;;;6.70;6.20;;;33.20;81.60;;;;;;6092073;23;20597;-94
2021/08/12 11:46:23;;;;;;;7.30;6.60;;;33.10;81.50;;;;;;6091876;23;20914;-94
2021/08/12 11:48:51;;;;;;;6.93;6.20;;;33.10;81.80;;;;;;6089399;23;20572;-94
2021/08/12 11:51:20;;;;;;;6.93;6.43;;;33.40;80.80;;;;;;6091188;23;20684;-93
2021/08/12 11:53:54;;;;;;;7.00;6.43;;;33.60;79.70;;;;;;6091778;23;20637;-95
2021/08/12 11:56:24;;;;;;;6.57;6.10;;;34.00;79.20;;;;;;6089529;23;20593;-94
2021/08/12 11:58:52;;;;;;;7.30;6.57;;;34.00;79.30;;;;;;6091385;23;20569;-93
2021/08/12 12:01:21;;;;;;;7.27;6.67;;;34.00;77.30;;;;;;6091069;23;20624;-94
2021/08/12 12:03:58;;;;;;;8.90;6.53;;;33.90;78.90;;;;;;6093560;23;20894;-94
2021/08/12 12:06:39;;;;;;;7.90;7.10;;;34.40;78.50;;;;;;6093738;23;21004;-95
2021/08/12 12:09:36;;;;;;;9.20;6.30;;;35.00;78.50;;;;;;6090670;23;20625;-94
2021/08/12 12:12:06;;;;;;;7.33;6.73;;;35.60;72.80;;;;;;6091763;23;20920;-93
2021/08/12 12:14:35;;;;;;;7.30;6.80;;;35.30;73.00;;;;;;6093216;23;20616;-94
2021/08/12 12:17:13;;;;;;;7.37;6.87;;;35.50;73.80;;;;;;6093652;23;20569;-95
2021/08/12 12:20:02;;;;;;;7.50;7.00;;;35.60;72.80;;;;;;6092847;23;20621;-94
2021/08/12 12:22:30;;;;;;;6.73;6.23;;;36.00;72.70;;;;;;6093552;23;20560;-95
2021/08/12 12:24:59;;;;;;;7.30;6.80;;;36.00;70.50;;;;;;6093159;23;20680;-94
2021/08/12 12:27:27;;;;;;;7.20;6.70;;;36.30;68.30;;;;;;6067114;23;20585;-94
2021/08/12 12:29:54;;;;;;;5.97;5.47;;;36.60;67.80;;;;;;6093856;23;20617;-93
2021/08/12 12:32:21;;;;;;;6.97;6.20;;;37.00;67.10;;;;;;6093195;23;20601;-93
2021/08/12 12:34:54;;;;;;;7.13;6.53;;;37.20;65.80;;;;;;6090676;23;20593;-94
2021/08/12 12:37:22;;;;;;;6.70;6.20;;;37.50;65.10;;;;;;6091852;23;20608;-92
2021/08/12 12:39:50;;;;;;;6.53;6.03;;;37.60;65.80;;;;;;6091303;23;20601;-92
2021/08/12 12:42:19;;;;;;;7.80;7.10;;;37.90;63.80;;;;;;6091124;23;20504;-92
2021/08/12 12:44:57;;;;;;;7.43;6.83;;;38.20;63.60;;;;;;6092902;23;20245;-92
2021/08/12 12:47:25;;;;;;;7.30;6.60;;;38.50;62.90;;;;;;6090518;23;20353;-92
2021/08/12 12:49:52;;;;;;;7.90;7.30;;;38.70;61.60;;;;;;6087942;23;20581;-92
2021/08/12 12:52:19;;;;;;;6.90;6.30;;;38.60;59.90;;;;;;6091396;23;20182;-91
2021/08/12 12:54:45;;;;;;;7.20;6.60;;;38.40;59.70;;;;;;6089299;23;20716;-92
2021/08/12 12:57:13;;;;;;;7.15;6.50;;;38.20;60.70;;;;;;6091519;23;20185;-92